Time;durP1;ratioP1;P1;durP2;ratioP2;P2;SDS_P1;SDS_P2;PMS_P1;PMS_P2;Temp;Humidity;BMP_temperature;BMP_pressure;BME280_temperature;BME280_humidity;BME280_pressure;Samples;Min_cycle;Max_cycle;Signal;HPM_P1;HPM_P2
2024/01/13 00:02:01;;;;;;;47.37;16.43;;;;;;;-145.69;58.88;52412.69;5093795;28;20210;-82
2024/01/13 00:04:27;;;;;;;48.03;16.23;;;;;;;-145.69;58.85;52462.22;5093950;28;20255;-79
2024/01/13 00:06:54;;;;;;;50.67;18.23;;;;;;;-145.69;58.73;52464.19;5094155;28;20202;-79
2024/01/13 00:09:21;;;;;;;44.30;17.10;;;;;;;-145.69;58.33;52448.34;5094137;28;20202;-78
2024/01/13 00:11:47;;;;;;;54.03;18.60;;;;;;;-145.69;58.28;52480.03;5093914;28;20194;-80
2024/01/13 00:14:14;;;;;;;44.17;17.10;;;;;;;-145.69;58.21;52476.06;5094110;28;20252;-80
2024/01/13 00:16:42;;;;;;;54.53;18.30;;;;;;;-145.69;58.31;52466.16;5093941;28;20556;-81
2024/01/13 00:19:08;;;;;;;48.40;15.90;;;;;;;-145.69;58.39;52440.44;5093660;28;20198;-80
2024/01/13 00:21:35;;;;;;;47.63;17.03;;;;;;;-145.69;58.73;52499.84;5093657;28;20201;-80
2024/01/13 00:24:01;;;;;;;46.37;16.93;;;;;;;-145.69;58.78;52466.16;5093679;28;20198;-82
2024/01/13 00:26:28;;;;;;;47.30;17.87;;;;;;;-145.69;58.39;52450.31;5093594;28;20247;-81
2024/01/13 00:28:55;;;;;;;50.97;17.90;;;;;;;-145.69;58.58;52484.00;5093694;28;20198;-80
2024/01/13 00:31:21;;;;;;;53.53;18.67;;;;;;;-145.69;58.40;52472.13;5093495;28;20194;-81
2024/01/13 00:33:49;;;;;;;60.00;18.97;;;;;;;-145.69;57.80;52476.06;5093450;28;20221;-78
2024/01/13 00:36:16;;;;;;;58.83;21.33;;;;;;;-145.69;58.00;52499.84;5093676;28;20668;-81
2024/01/13 00:38:42;;;;;;;53.77;18.63;;;;;;;-145.69;58.23;52462.22;5093427;28;20201;-81
2024/01/13 00:41:09;;;;;;;57.03;20.87;;;;;;;-145.69;58.08;52440.44;5092943;28;20205;-81
2024/01/13 00:43:36;;;;;;;61.97;20.73;;;;;;;-145.69;58.19;52444.38;5093438;28;20198;-81
2024/01/13 00:46:02;;;;;;;50.33;17.93;;;;;;;-145.69;58.03;52436.47;5093515;28;20706;-80
2024/01/13 00:48:29;;;;;;;47.17;16.27;;;;;;;-145.69;57.40;52484.00;5092794;28;20202;-81
2024/01/13 00:50:57;;;;;;;42.43;15.47;;;;;;;-145.69;57.88;52458.25;5093504;28;20672;-81
2024/01/13 00:53:23;;;;;;;41.73;14.50;;;;;;;-145.69;57.68;52470.13;5093020;28;20226;-81
2024/01/13 00:55:51;;;;;;;42.10;15.17;;;;;;;-145.69;57.08;52438.44;5093258;28;20649;-80
2024/01/13 00:58:18;;;;;;;49.07;17.77;;;;;;;-145.69;58.05;52456.28;5092980;28;20243;-80
2024/01/13 01:00:44;;;;;;;49.77;17.80;;;;;;;-145.69;57.27;52432.50;5093386;28;20237;-79
2024/01/13 01:03:11;;;;;;;54.47;18.23;;;;;;;-145.69;58.18;52456.28;5092983;28;20561;-80
2024/01/13 01:05:37;;;;;;;54.80;18.73;;;;;;;-145.69;57.54;52487.97;5093181;28;20198;-80
2024/01/13 01:08:06;;;;;;;43.23;17.77;;;;;;;-145.69;58.34;52452.31;5093232;28;20208;-80
2024/01/13 01:10:32;;;;;;;49.70;17.50;;;;;;;-145.69;58.27;52460.22;5093106;28;20205;-81
2024/01/13 01:12:59;;;;;;;54.57;18.50;;;;;;;-145.69;58.05;52484.00;5092200;28;20197;-80
2024/01/13 01:15:25;;;;;;;54.40;19.23;;;;;;;-145.69;57.16;52476.06;5092903;28;20198;-80
2024/01/13 01:17:52;;;;;;;45.63;17.37;;;;;;;-145.69;57.20;52489.94;5092882;28;20241;-81
2024/01/13 01:20:19;;;;;;;52.97;18.30;;;;;;;-145.69;57.92;52480.03;5092948;28;20437;-80
2024/01/13 01:22:46;;;;;;;49.17;16.93;;;;;;;-145.69;58.09;52491.91;5092790;28;20201;-81
2024/01/13 01:25:14;;;;;;;50.30;17.57;;;;;;;-145.69;57.77;52480.03;5092855;28;20201;-80
2024/01/13 01:27:40;;;;;;;52.40;16.57;;;;;;;-145.69;58.18;52480.03;5092675;28;20214;-79
2024/01/13 01:30:11;;;;;;;38.40;14.90;;;;;;;-145.69;57.49;52460.22;5092523;28;20198;-79
2024/01/13 01:32:38;;;;;;;46.77;13.80;;;;;;;-145.69;57.48;52454.28;5092249;28;20579;-81
2024/01/13 01:35:06;;;;;;;44.83;13.87;;;;;;;-145.69;57.50;52464.19;5092555;28;20829;-80
2024/01/13 01:37:40;;;;;;;40.60;14.60;;;;;;;-145.69;58.07;52472.13;5092641;28;20245;-81
2024/01/13 01:40:10;;;;;;;40.20;13.80;;;;;;;-145.69;57.52;52499.84;5092807;28;20202;-81
2024/01/13 01:42:37;;;;;;;46.10;16.07;;;;;;;-145.69;57.70;52489.94;5092618;28;20326;-81
2024/01/13 01:45:04;;;;;;;41.13;15.53;;;;;;;-145.69;56.95;52480.03;5092658;28;20293;-81
2024/01/13 01:47:33;;;;;;;45.73;14.47;;;;;;;-145.69;57.17;52434.47;5092610;28;20282;-80
2024/01/13 01:50:03;;;;;;;41.73;14.50;;;;;;;-145.69;57.08;52456.28;5092605;28;20233;-80
2024/01/13 01:52:30;;;;;;;35.57;13.90;;;;;;;-145.69;57.33;52497.84;5090827;28;20199;-80
2024/01/13 01:54:56;;;;;;;47.23;14.57;;;;;;;-145.69;57.25;52501.81;5092821;28;20607;-80
2024/01/13 01:57:23;;;;;;;34.57;13.57;;;;;;;-145.69;57.08;52456.28;5092686;28;20198;-81
2024/01/13 01:59:52;;;;;;;30.00;13.27;;;;;;;-145.69;56.67;52491.91;5091495;28;20615;-81
2024/01/13 02:02:19;;;;;;;35.10;13.17;;;;;;;-145.69;56.40;52474.09;5096394;28;20202;-80
2024/01/13 02:04:47;;;;;;;41.07;13.93;;;;;;;-145.69;56.45;52456.28;5096346;28;20202;-80
2024/01/13 02:07:15;;;;;;;40.13;14.87;;;;;;;-145.69;56.80;52474.09;5096318;28;20545;-80
2024/01/13 02:09:42;;;;;;;38.40;14.70;;;;;;;-145.69;57.06;52499.84;5093393;28;20670;-81
2024/01/13 02:12:09;;;;;;;33.70;13.57;;;;;;;-145.69;56.75;52442.41;5090847;28;20672;-80
2024/01/13 02:14:35;;;;;;;38.33;13.97;;;;;;;-145.69;56.76;52487.97;5095959;28;20228;-81
2024/01/13 02:17:03;;;;;;;38.43;13.03;;;;;;;-145.69;57.17;52428.53;5096124;28;20206;-80
2024/01/13 02:19:32;;;;;;;46.60;14.30;;;;;;;-145.69;56.83;52460.22;5096127;28;20656;-81
2024/01/13 02:21:59;;;;;;;45.00;15.00;;;;;;;-145.69;56.88;52478.06;5096109;28;20190;-81
2024/01/13 02:24:26;;;;;;;63.03;16.77;;;;;;;-145.69;57.05;52468.16;5095434;28;20205;-80
2024/01/13 02:26:53;;;;;;;47.47;15.77;;;;;;;-145.69;56.90;52466.16;5096224;28;20554;-80
2024/01/13 02:29:19;;;;;;;44.03;14.27;;;;;;;-145.69;57.55;52428.53;5095882;28;20209;-81
2024/01/13 02:31:45;;;;;;;40.90;13.83;;;;;;;-145.69;56.62;52456.28;5095402;28;20644;-80
2024/01/13 02:34:12;;;;;;;49.87;15.03;;;;;;;-145.69;57.22;52460.22;5095632;28;20221;-81
2024/01/13 02:36:38;;;;;;;45.37;14.97;;;;;;;-145.69;56.98;52428.53;5095880;28;20312;-80
2024/01/13 02:39:06;;;;;;;43.83;14.50;;;;;;;-145.69;57.45;52474.09;5096017;28;20206;-81
2024/01/13 02:41:33;;;;;;;44.63;13.80;;;;;;;-145.69;57.69;52470.13;5095668;28;20201;-80
2024/01/13 02:43:59;;;;;;;45.43;14.13;;;;;;;-145.69;56.88;52476.06;5095606;28;20194;-81
2024/01/13 02:46:26;;;;;;;42.30;14.13;;;;;;;-145.69;57.19;52472.13;5095619;28;20205;-81
2024/01/13 02:48:55;;;;;;;33.63;13.07;;;;;;;-145.69;57.73;52468.16;5095784;28;20198;-81
2024/01/13 02:51:21;;;;;;;39.27;13.17;;;;;;;-145.69;57.34;52462.22;5095815;28;20198;-81
2024/01/13 02:53:48;;;;;;;40.27;14.73;;;;;;;-145.69;57.35;52440.44;5094360;28;20226;-79
2024/01/13 02:56:16;;;;;;;39.87;14.90;;;;;;;-145.69;58.31;52468.16;5094971;28;20194;-81
2024/01/13 02:58:43;;;;;;;39.43;15.03;;;;;;;-145.69;56.92;52440.44;5074849;28;20245;-81
2024/01/13 03:01:09;;;;;;;72.23;18.23;;;;;;;-145.69;57.15;52480.03;5073830;28;20195;-81
2024/01/13 03:03:37;;;;;;;56.00;17.70;;;;;;;-145.69;57.30;52456.28;5075152;28;20286;-81
2024/01/13 03:06:05;;;;;;;64.60;18.30;;;;;;;-145.69;57.49;52458.25;5086566;28;20205;-81
2024/01/13 03:08:32;;;;;;;63.67;18.00;;;;;;;-145.69;56.92;52460.22;5095063;28;20560;-80
2024/01/13 03:10:58;;;;;;;56.87;15.20;;;;;;;-145.69;57.18;52444.38;5094659;28;20199;-81
2024/01/13 03:13:26;;;;;;;35.77;12.70;;;;;;;-145.69;56.90;52460.22;5094943;28;20198;-81
2024/01/13 03:15:53;;;;;;;37.20;13.53;;;;;;;-145.69;57.49;52507.75;5095223;28;20224;-82
2024/01/13 03:18:19;;;;;;;42.20;13.17;;;;;;;-145.69;56.97;52456.28;5094991;28;20678;-80
2024/01/13 03:20:45;;;;;;;36.00;13.67;;;;;;;-145.69;57.53;52472.13;5094981;28;20216;-81
2024/01/13 03:23:12;;;;;;;42.10;13.97;;;;;;;-145.69;57.39;52493.91;5094918;28;20549;-82
2024/01/13 03:25:39;;;;;;;35.70;13.50;;;;;;;-145.69;57.58;52444.38;5094595;28;20205;-81
2024/01/13 03:28:05;;;;;;;41.20;13.90;;;;;;;-145.69;57.93;52513.69;5094763;28;20201;-81
2024/01/13 03:30:33;;;;;;;34.40;11.57;;;;;;;-145.69;57.67;52464.19;5095330;28;20205;-80
2024/01/13 03:33:01;;;;;;;33.77;12.00;;;;;;;-145.69;57.19;52458.25;5096248;28;20190;-80
2024/01/13 03:35:27;;;;;;;33.17;13.13;;;;;;;-145.69;57.87;52466.16;5098752;28;20218;-81
2024/01/13 03:37:54;;;;;;;34.00;12.13;;;;;;;-145.69;57.76;52485.97;5099140;28;20231;-80
2024/01/13 03:40:21;;;;;;;42.53;12.33;;;;;;;-145.69;57.15;52484.00;5100261;28;20266;-80
2024/01/13 03:42:47;;;;;;;27.87;12.00;;;;;;;-145.69;58.41;52462.22;5101204;28;20198;-80
2024/01/13 03:45:14;;;;;;;33.43;11.90;;;;;;;-145.69;58.03;52482.00;5102170;28;20212;-81
2024/01/13 03:47:42;;;;;;;27.90;11.17;;;;;;;-145.69;58.09;52412.69;5095375;28;20220;-80
2024/01/13 03:50:09;;;;;;;29.30;10.80;;;;;;;-145.69;57.20;52485.97;5094696;28;20205;-80
2024/01/13 03:52:35;;;;;;;32.27;11.13;;;;;;;-145.69;57.25;52491.91;5094983;28;20197;-80
2024/01/13 03:55:02;;;;;;;34.87;12.40;;;;;;;-145.69;57.68;52444.38;5096448;28;20230;-81
2024/01/13 03:57:28;;;;;;;65.35;20.55;;;;;;;-145.69;58.12;52452.31;5095957;28;20440;-80
2024/01/13 03:59:55;;;;;;;45.90;15.13;;;;;;;-145.69;57.77;52476.06;5097047;28;20230;-80
2024/01/13 04:02:21;;;;;;;44.07;13.50;;;;;;;-145.69;57.65;52487.97;5092069;28;20233;-81
2024/01/13 04:04:49;;;;;;;47.70;12.97;;;;;;;-145.69;57.87;52468.16;5094940;28;20288;-81
2024/01/13 04:07:16;;;;;;;44.23;11.90;;;;;;;-145.69;57.70;52472.13;5095115;28;20209;-80
2024/01/13 04:09:42;;;;;;;38.20;12.20;;;;;;;-145.69;57.08;52484.00;5098311;28;20201;-81
2024/01/13 04:12:09;;;;;;;37.33;10.30;;;;;;;-145.69;57.66;52472.13;5100706;28;20198;-81
2024/01/13 04:14:36;;;;;;;36.97;11.40;;;;;;;-145.69;57.35;52462.22;5100478;28;20233;-80
2024/01/13 04:17:02;;;;;;;35.07;11.13;;;;;;;-145.69;57.05;52452.31;5100040;28;20206;-80
2024/01/13 04:19:29;;;;;;;42.03;12.73;;;;;;;-145.69;57.19;52472.13;5099706;28;20710;-81
2024/01/13 04:21:57;;;;;;;49.57;16.17;;;;;;;-145.69;57.73;52432.50;5100025;28;20202;-81
2024/01/13 04:24:23;;;;;;;46.17;14.03;;;;;;;-145.69;57.28;52474.09;5099474;28;20221;-81
2024/01/13 04:26:50;;;;;;;50.13;13.80;;;;;;;-145.69;57.16;52440.44;5100136;28;20198;-81
2024/01/13 04:29:16;;;;;;;47.97;13.30;;;;;;;-145.69;56.42;52472.13;5099832;28;20667;-81
2024/01/13 04:31:43;;;;;;;52.33;14.93;;;;;;;-145.69;56.97;52503.81;5099835;28;20201;-81
2024/01/13 04:34:10;;;;;;;50.70;16.03;;;;;;;-145.69;56.56;52450.31;5099715;28;20226;-81
2024/01/13 04:36:36;;;;;;;40.60;14.70;;;;;;;-145.69;56.91;52501.81;5101916;28;20194;-81
2024/01/13 04:39:04;;;;;;;50.07;14.93;;;;;;;-145.69;56.32;52460.22;5100270;28;20277;-80
2024/01/13 04:41:31;;;;;;;44.10;14.43;;;;;;;-145.69;56.52;52472.13;5093718;28;20541;-80
2024/01/13 04:43:57;;;;;;;56.80;15.27;;;;;;;-145.69;56.95;52472.13;5095398;28;20201;-82
2024/01/13 04:46:24;;;;;;;44.73;12.83;;;;;;;-145.69;57.18;52497.84;5100366;28;20202;-80
2024/01/13 04:48:50;;;;;;;35.17;13.47;;;;;;;-145.69;57.18;52468.16;5095037;28;20213;-80
2024/01/13 04:51:17;;;;;;;58.72;21.60;;;;;;;-145.69;58.28;52464.19;5093315;28;20432;-81
2024/01/13 04:53:44;;;;;;;49.03;15.40;;;;;;;-145.69;56.99;52448.34;5094835;28;20193;-81
2024/01/13 04:56:12;;;;;;;40.97;14.43;;;;;;;-145.69;57.50;52478.06;5095072;28;20226;-81
2024/01/13 04:58:38;;;;;;;38.47;13.50;;;;;;;-145.69;57.83;52430.53;5097188;28;20692;-81
2024/01/13 05:01:05;;;;;;;45.13;14.60;;;;;;;-145.69;58.07;52452.31;5093557;28;20202;-80
2024/01/13 05:03:31;;;;;;;41.30;14.93;;;;;;;-145.69;58.00;52450.31;5075879;28;20198;-82
2024/01/13 05:05:58;;;;;;;54.30;16.80;;;;;;;-145.69;58.38;52474.09;5082034;28;20554;-81
2024/01/13 05:08:25;;;;;;;54.13;17.10;;;;;;;-145.69;57.25;52482.00;5078694;28;20286;-81
2024/01/13 05:10:51;;;;;;;59.20;17.57;;;;;;;-145.69;56.64;52478.06;5083020;28;20206;-82
2024/01/13 05:13:19;;;;;;;50.57;17.27;;;;;;;-145.69;57.25;52448.34;5098424;28;20194;-80
2024/01/13 05:15:46;;;;;;;51.80;15.77;;;;;;;-145.69;56.62;52489.94;5097522;28;20275;-80
2024/01/13 05:18:13;;;;;;;62.10;16.70;;;;;;;-145.69;56.90;52458.25;5097283;28;20213;-81
2024/01/13 05:20:39;;;;;;;46.60;14.47;;;;;;;-145.69;56.97;52432.50;5096594;28;20202;-81
2024/01/13 05:23:07;;;;;;;40.43;15.37;;;;;;;-145.69;57.02;52466.16;5094481;28;20206;-81
2024/01/13 05:25:34;;;;;;;44.40;16.33;;;;;;;-145.69;57.95;52468.16;5093315;28;20198;-81
2024/01/13 05:28:02;;;;;;;53.00;16.00;;;;;;;-145.69;57.72;52523.59;5094078;28;20205;-80
2024/01/13 05:30:32;;;;;;;50.67;15.50;;;;;;;-145.69;58.03;52468.16;5094806;28;20198;-80
2024/01/13 05:32:59;;;;;;;51.33;17.27;;;;;;;-145.69;57.89;52432.50;5093520;28;20202;-79
2024/01/13 05:35:25;;;;;;;44.37;15.57;;;;;;;-145.69;58.13;52438.44;5095684;28;20225;-80
2024/01/13 05:37:55;;;;;;;48.83;17.43;;;;;;;-145.69;57.76;52491.91;5099653;28;20205;-82
2024/01/13 05:40:21;;;;;;;49.23;17.70;;;;;;;-145.69;58.69;52464.19;5099238;28;20212;-80
2024/01/13 05:42:48;;;;;;;47.53;16.17;;;;;;;-145.69;58.68;52456.28;5098016;28;20224;-80
2024/01/13 05:45:15;;;;;;;53.67;17.40;;;;;;;-145.69;57.93;52476.06;5097210;28;20213;-82
2024/01/13 05:47:43;;;;;;;57.03;16.50;;;;;;;-145.69;57.89;52480.03;5098220;28;20208;-81
2024/01/13 05:50:11;;;;;;;60.97;16.87;;;;;;;-145.69;57.95;52440.44;5099356;28;20209;-82
2024/01/13 05:52:38;;;;;;;65.10;18.50;;;;;;;-145.69;58.08;52460.22;5100216;28;20194;-80
2024/01/13 05:55:10;;;;;;;62.67;18.43;;;;;;;-145.69;58.20;52466.16;5100026;28;20362;-80
2024/01/13 05:57:37;;;;;;;49.70;15.90;;;;;;;-145.69;58.42;52448.34;5100354;28;20198;-81
2024/01/13 06:00:04;;;;;;;56.20;16.97;;;;;;;-145.69;57.70;52503.81;5103126;28;20234;-81
2024/01/13 06:02:31;;;;;;;52.70;16.80;;;;;;;-145.69;58.03;52495.88;5092676;28;20198;-81
2024/01/13 06:04:59;;;;;;;44.50;16.73;;;;;;;-145.69;57.92;52460.22;5097867;28;20649;-81
2024/01/13 06:07:25;;;;;;;48.97;17.17;;;;;;;-145.69;58.53;52428.53;5097259;28;20202;-80
2024/01/13 06:09:52;;;;;;;43.10;15.93;;;;;;;-145.69;58.21;52458.25;5100506;28;20205;-81
2024/01/13 06:12:20;;;;;;;46.90;16.17;;;;;;;-145.69;57.78;52470.13;5104774;28;20225;-80
2024/01/13 06:14:46;;;;;;;49.33;13.77;;;;;;;-145.69;58.29;52472.13;5099177;28;20222;-81
2024/01/13 06:17:13;;;;;;;45.60;16.00;;;;;;;-145.69;58.13;52426.56;5097916;28;20656;-80
2024/01/13 06:19:40;;;;;;;57.93;17.10;;;;;;;-145.69;57.65;52487.97;5097391;28;20191;-81
2024/01/13 06:22:07;;;;;;;57.37;17.20;;;;;;;-145.69;57.63;52444.38;5098517;28;20673;-81
2024/01/13 06:24:34;;;;;;;42.80;14.03;;;;;;;-145.69;57.03;52472.13;5098184;28;20205;-82
2024/01/13 06:27:00;;;;;;;42.67;13.33;;;;;;;-145.69;57.52;52474.09;5098071;28;20206;-81
2024/01/13 06:29:27;;;;;;;42.57;14.90;;;;;;;-145.69;57.05;52440.44;5097835;28;20198;-80
2024/01/13 06:31:53;;;;;;;45.23;14.17;;;;;;;-145.69;57.50;52476.06;5098341;28;20601;-82
2024/01/13 06:34:20;;;;;;;39.67;16.30;;;;;;;-145.69;56.72;52491.91;5097581;28;20202;-81
2024/01/13 06:36:46;;;;;;;44.30;14.27;;;;;;;-145.69;57.72;52489.94;5096860;28;20226;-81
2024/01/13 06:39:14;;;;;;;37.50;14.10;;;;;;;-145.69;56.92;52484.00;5097573;28;20201;-81
2024/01/13 06:41:40;;;;;;;38.77;14.37;;;;;;;-145.69;57.26;52456.28;5096937;28;20592;-82
2024/01/13 06:44:07;;;;;;;41.70;12.97;;;;;;;-145.69;56.45;52472.13;5096992;28;20197;-81
2024/01/13 06:46:33;;;;;;;44.00;14.47;;;;;;;-145.69;56.98;52487.97;5096100;28;20198;-81
2024/01/13 06:49:00;;;;;;;41.40;14.97;;;;;;;-145.69;56.95;52432.50;5097224;28;20605;-79
2024/01/13 06:51:26;;;;;;;45.60;14.73;;;;;;;-145.69;56.57;52448.34;5097087;28;20247;-82
2024/01/13 06:53:53;;;;;;;44.67;14.40;;;;;;;-145.69;56.52;52452.31;5097261;28;20556;-82
2024/01/13 06:56:20;;;;;;;49.50;15.13;;;;;;;-145.69;56.23;52448.34;5097099;28;20872;-82
2024/01/13 06:58:47;;;;;;;47.70;15.57;;;;;;;-145.69;57.38;52484.00;5096942;28;20229;-82
2024/01/13 07:01:14;;;;;;;39.70;14.50;;;;;;;-145.69;56.92;52474.09;5096462;28;20202;-84
2024/01/13 07:03:41;;;;;;;35.37;15.13;;;;;;;-145.69;57.89;52466.16;5096820;28;20232;-82
2024/01/13 07:06:08;;;;;;;43.17;14.93;;;;;;;-145.69;56.97;52474.09;5096771;28;20243;-79
2024/01/13 07:08:35;;;;;;;42.30;15.47;;;;;;;-145.69;57.28;52472.13;5096111;28;20206;-80
2024/01/13 07:11:01;;;;;;;42.17;14.67;;;;;;;-145.69;57.55;52476.06;5095709;28;20210;-82
2024/01/13 07:13:29;;;;;;;40.00;14.43;;;;;;;-145.69;56.98;52452.31;5096573;28;20569;-81
2024/01/13 07:15:55;;;;;;;37.87;12.83;;;;;;;-145.69;56.77;52476.06;5095972;28;20232;-82
2024/01/13 07:18:22;;;;;;;38.90;13.00;;;;;;;-145.69;57.15;52474.09;5095658;28;20205;-81
2024/01/13 07:20:49;;;;;;;40.97;13.20;;;;;;;-145.69;57.10;52485.97;5095700;28;20202;-81
2024/01/13 07:23:15;;;;;;;31.17;10.47;;;;;;;-145.69;56.88;52444.38;5096306;28;20198;-81
2024/01/13 07:25:42;;;;;;;31.17;11.33;;;;;;;-145.69;56.29;52468.16;5102649;28;20202;-80
2024/01/13 07:28:09;;;;;;;29.23;10.87;;;;;;;-145.69;56.56;52460.22;5106089;28;20194;-79
2024/01/13 07:30:36;;;;;;;26.67;10.83;;;;;;;-145.69;56.59;52448.34;5108450;28;20205;-80
2024/01/13 07:33:03;;;;;;;50.23;15.60;;;;;;;-145.69;57.01;52491.91;5108880;28;20232;-80
2024/01/13 07:35:30;;;;;;;49.00;14.50;;;;;;;-145.69;56.10;52472.13;5100628;28;20232;-80
2024/01/13 07:37:56;;;;;;;43.67;15.33;;;;;;;-145.69;56.43;52474.09;5099500;28;20209;-82
2024/01/13 07:40:23;;;;;;;39.57;14.17;;;;;;;-145.69;56.43;52476.06;5100324;28;20198;-80
2024/01/13 07:42:49;;;;;;;41.50;12.87;;;;;;;-145.69;56.50;52466.16;5098610;28;20247;-81
2024/01/13 07:45:15;;;;;;;33.93;12.90;;;;;;;-145.69;56.47;52428.53;5094537;28;20191;-81
2024/01/13 07:47:43;;;;;;;35.90;12.77;;;;;;;-145.69;57.47;52476.06;5094756;28;20198;-78
2024/01/13 07:50:10;;;;;;;29.03;11.90;;;;;;;-145.69;56.88;52487.97;5094125;28;20545;-80
2024/01/13 07:52:36;;;;;;;32.60;12.00;;;;;;;-145.69;57.35;52468.16;5094479;28;20194;-79
2024/01/13 07:55:04;;;;;;;28.53;11.33;;;;;;;-145.69;57.14;52515.69;5093152;28;20197;-79
2024/01/13 07:57:30;;;;;;;30.37;11.63;;;;;;;-145.69;57.02;52485.97;5087119;28;20715;-78
2024/01/13 07:59:57;;;;;;;28.70;11.00;;;;;;;-145.69;57.56;52450.31;5090162;28;20287;-81
2024/01/13 08:02:23;;;;;;;34.53;12.13;;;;;;;-145.69;57.14;52450.31;5094357;28;20206;-80
2024/01/13 08:04:51;;;;;;;36.57;12.50;;;;;;;-145.69;56.86;52456.28;5094128;28;20206;-78
2024/01/13 08:07:20;;;;;;;29.90;11.43;;;;;;;-145.69;56.88;52452.31;5094380;28;20202;-81
2024/01/13 08:09:46;;;;;;;35.53;11.67;;;;;;;-145.69;56.70;52491.91;5093983;28;20202;-81
2024/01/13 08:12:13;;;;;;;37.50;11.90;;;;;;;-145.69;57.32;52444.38;5094253;28;20194;-81
2024/01/13 08:14:39;;;;;;;38.13;13.57;;;;;;;-145.69;57.25;52446.38;5093682;28;20191;-80
2024/01/13 08:17:06;;;;;;;34.80;13.20;;;;;;;-145.69;57.25;52466.16;5093598;28;20646;-81
2024/01/13 08:19:32;;;;;;;36.37;12.53;;;;;;;-145.69;56.65;52466.16;5093404;28;20202;-78
2024/01/13 08:22:00;;;;;;;46.43;14.20;;;;;;;-145.69;57.28;52493.91;5093737;28;20553;-80
2024/01/13 08:24:26;;;;;;;38.87;14.53;;;;;;;-145.69;57.44;52446.38;5093887;28;20198;-80
2024/01/13 08:26:54;;;;;;;44.23;15.30;;;;;;;-145.69;57.75;52452.31;5093883;28;20227;-82
2024/01/13 08:29:20;;;;;;;41.87;14.30;;;;;;;-145.69;57.85;52440.44;5093307;28;20193;-79
2024/01/13 08:31:49;;;;;;;39.13;15.10;;;;;;;-145.69;57.42;52460.22;5093782;28;20205;-80
2024/01/13 08:34:15;;;;;;;35.43;13.10;;;;;;;-145.69;57.66;52438.44;5093423;28;20671;-81
2024/01/13 08:36:42;;;;;;;45.80;17.30;;;;;;;-145.69;57.83;52458.25;5092728;28;20619;-81
2024/01/13 08:39:10;;;;;;;38.73;13.60;;;;;;;-145.69;57.40;52450.31;5092772;28;20777;-80
2024/01/13 08:41:37;;;;;;;51.38;19.33;;;;;;;-145.69;58.13;52480.03;5091775;28;20515;-81
2024/01/13 08:44:03;;;;;;;42.30;16.67;;;;;;;-145.69;57.91;52476.06;5093791;28;20198;-80
2024/01/13 08:46:30;;;;;;;40.83;17.13;;;;;;;-145.69;57.76;52440.44;5093543;28;20662;-80
2024/01/13 08:48:57;;;;;;;45.90;17.00;;;;;;;-145.69;57.62;52452.31;5093102;28;20263;-82
2024/01/13 08:51:23;;;;;;;45.43;15.10;;;;;;;-145.69;58.07;52442.41;5093363;28;20702;-80
2024/01/13 08:53:50;;;;;;;38.67;13.57;;;;;;;-145.69;57.18;52448.34;5093472;28;20198;-79
2024/01/13 08:56:17;;;;;;;38.07;15.43;;;;;;;-145.69;57.92;52454.28;5093009;28;20225;-81
2024/01/13 08:58:44;;;;;;;45.57;14.80;;;;;;;-145.69;58.09;52460.22;5092877;28;20283;-80
2024/01/13 09:01:10;;;;;;;49.37;16.40;;;;;;;-145.69;58.05;52460.22;5093104;28;20202;-79
2024/01/13 09:03:37;;;;;;;37.77;14.33;;;;;;;-145.69;57.63;52474.09;5089972;28;20198;-80
2024/01/13 09:06:03;;;;;;;33.30;13.30;;;;;;;-145.69;57.80;52456.28;5092841;28;20194;-81
2024/01/13 09:08:30;;;;;;;45.87;14.70;;;;;;;-145.69;58.16;52432.50;5092645;28;20556;-82
2024/01/13 09:10:56;;;;;;;35.23;13.43;;;;;;;-145.69;57.88;52450.31;5092773;28;20584;-81
2024/01/13 09:13:24;;;;;;;34.40;13.33;;;;;;;-145.69;58.27;52456.28;5093036;28;20213;-82
2024/01/13 09:15:51;;;;;;;40.97;14.73;;;;;;;-145.69;57.93;52452.31;5092728;28;20680;-81
2024/01/13 09:18:17;;;;;;;31.63;12.47;;;;;;;-145.69;58.33;52448.34;5092832;28;20205;-79
2024/01/13 09:20:44;;;;;;;29.83;12.10;;;;;;;-145.69;58.15;52456.28;5092662;28;20197;-79
2024/01/13 09:23:10;;;;;;;37.10;14.80;;;;;;;-145.69;58.23;52476.06;5093420;28;20202;-79
2024/01/13 09:25:37;;;;;;;36.10;13.63;;;;;;;-145.69;59.02;52456.28;5094168;28;20213;-81
2024/01/13 09:28:04;;;;;;;40.73;14.67;;;;;;;-145.69;58.31;52446.38;5097995;28;20226;-80
2024/01/13 09:30:32;;;;;;;41.93;15.13;;;;;;;-145.69;59.47;52426.56;5096292;28;20198;-81
2024/01/13 09:32:58;;;;;;;31.20;13.57;;;;;;;-145.69;59.51;52460.22;5091470;28;20718;-81
2024/01/13 09:35:30;;;;;;;42.80;16.40;;;;;;;-145.69;59.34;52420.63;5092928;28;20198;-79
2024/01/13 09:37:57;;;;;;;36.77;16.13;;;;;;;-145.69;59.89;52462.22;5093775;28;20198;-79
2024/01/13 09:40:23;;;;;;;53.53;22.15;;;;;;;-145.69;60.30;52458.25;5092385;28;20436;-80
2024/01/13 09:43:10;;;;;;;50.00;18.03;;;;;;;-145.69;60.53;52432.50;5093000;28;20225;-80
2024/01/13 09:45:41;;;;;;;47.93;18.70;;;;;;;-145.69;60.24;52416.66;5092766;28;20202;-78
2024/01/13 09:48:10;;;;;;;46.57;17.20;;;;;;;-145.69;60.38;52406.75;5092375;28;20649;-81
2024/01/13 09:50:39;;;;;;;43.07;16.83;;;;;;;-145.69;59.56;52456.28;5093422;28;20229;-80
2024/01/13 09:53:08;;;;;;;47.03;18.77;;;;;;;-145.69;60.32;52480.03;5095352;28;20198;-83
2024/01/13 09:55:38;;;;;;;44.00;17.87;;;;;;;-145.69;60.16;52480.03;5093770;28;20209;-82
2024/01/13 09:58:06;;;;;;;51.77;18.20;;;;;;;-145.69;60.02;52444.38;5091300;28;20220;-82
2024/01/13 10:00:34;;;;;;;44.27;17.30;;;;;;;-145.69;60.49;52444.38;5093325;28;20218;-80
2024/01/13 10:03:04;;;;;;;50.97;19.20;;;;;;;-145.69;60.11;52454.28;5099080;28;20190;-82
2024/01/13 10:05:30;;;;;;;44.83;17.67;;;;;;;-145.69;60.64;52430.53;5116596;28;20255;-80
2024/01/13 10:07:57;;;;;;;56.90;19.30;;;;;;;-145.69;60.26;52428.53;5094617;28;20556;-81
2024/01/13 10:10:25;;;;;;;45.77;18.90;;;;;;;-145.69;60.19;52408.75;5094493;28;20206;-82
2024/01/13 10:12:51;;;;;;;48.63;17.77;;;;;;;-145.69;60.76;52432.50;5094870;28;20251;-81
2024/01/13 10:15:18;;;;;;;45.43;15.83;;;;;;;-145.69;60.43;52426.56;5095258;28;20199;-84
2024/01/13 10:17:45;;;;;;;46.33;19.17;;;;;;;-145.69;60.59;52456.28;5093251;28;20626;-82
2024/01/13 10:20:14;;;;;;;53.37;20.00;;;;;;;-145.69;60.96;52420.63;5093432;28;20675;-83
2024/01/13 10:22:42;;;;;;;47.13;18.90;;;;;;;-145.69;61.31;52430.53;5096332;28;20214;-82
2024/01/13 10:25:08;;;;;;;52.23;18.70;;;;;;;-145.69;60.73;52430.53;5096564;28;20210;-82
2024/01/13 10:27:37;;;;;;;51.07;19.03;;;;;;;-145.69;60.34;52436.47;5096791;28;20195;-82
2024/01/13 10:30:09;;;;;;;52.77;19.87;;;;;;;-145.69;61.08;52438.44;5097404;28;20226;-82
2024/01/13 10:32:35;;;;;;;46.83;19.37;;;;;;;-145.69;60.94;52448.34;5097178;28;20199;-82
2024/01/13 10:35:02;;;;;;;52.87;19.47;;;;;;;-145.69;60.56;52416.66;5096070;28;20243;-82
2024/01/13 10:37:30;;;;;;;54.17;21.23;;;;;;;-145.69;60.65;52444.38;5097082;28;20222;-82
2024/01/13 10:39:57;;;;;;;49.60;19.67;;;;;;;-145.69;60.83;52452.31;5097306;28;20197;-82
2024/01/13 10:42:27;;;;;;;51.87;19.87;;;;;;;-145.69;nan;52428.53;5096724;28;20221;-82
2024/01/13 10:44:56;;;;;;;54.03;19.40;;;;;;;-145.69;61.98;52432.50;5096610;28;20745;-82
2024/01/13 10:47:29;;;;;;;56.67;20.87;;;;;;;-145.69;61.61;52398.84;5096508;28;20206;-81
2024/01/13 10:49:57;;;;;;;53.93;20.90;;;;;;;-145.69;61.48;52426.56;5096697;28;20206;-81
2024/01/13 10:52:42;;;;;;;64.60;21.17;;;;;;;-145.69;61.20;52460.22;5095608;28;20200;-81
2024/01/13 10:55:10;;;;;;;53.13;20.27;;;;;;;-145.69;60.87;52422.59;5095025;28;20198;-79
2024/01/13 10:57:38;;;;;;;48.87;18.87;;;;;;;-145.69;61.65;52430.53;5095570;28;20222;-80
2024/01/13 11:00:10;;;;;;;49.00;18.97;;;;;;;-145.69;61.25;52420.63;5094738;28;20230;-80
2024/01/13 11:02:37;;;;;;;49.47;19.60;;;;;;;-145.69;61.32;52448.34;5095231;28;20197;-81